sensor_id;sensor_type;location;lat;lon;timestamp;pressure;altitude;pressure_sealevel;temperature;humidity
32081;BME280;18593;51.426;7.030;2023-10-19T00:02:14;98420.00;;;12.62;88.83
32081;BME280;18593;51.426;7.030;2023-10-19T00:04:45;98413.59;;;12.63;88.94
32081;BME280;18593;51.426;7.030;2023-10-19T00:07:12;98418.66;;;12.65;89.04
32081;BME280;18593;51.426;7.030;2023-10-19T00:09:42;98419.47;;;12.65;89.52
32081;BME280;18593;51.426;7.030;2023-10-19T00:12:12;98421.06;;;12.66;90.32
32081;BME280;18593;51.426;7.030;2023-10-19T00:14:42;98425.34;;;12.67;91.01
32081;BME280;18593;51.426;7.030;2023-10-19T00:17:09;98410.88;;;12.68;90.82
32081;BME280;18593;51.426;7.030;2023-10-19T00:19:43;98403.41;;;12.70;90.86
32081;BME280;18593;51.426;7.030;2023-10-19T00:22:23;98398.56;;;12.72;91.02
32081;BME280;18593;51.426;7.030;2023-10-19T00:24:51;98399.09;;;12.74;90.93
32081;BME280;18593;51.426;7.030;2023-10-19T00:27:19;98399.63;;;12.76;90.85
32081;BME280;18593;51.426;7.030;2023-10-19T00:29:49;98395.84;;;12.77;91.41
32081;BME280;18593;51.426;7.030;2023-10-19T00:32:18;98394.78;;;12.78;90.99
32081;BME280;18593;51.426;7.030;2023-10-19T00:34:45;98403.34;;;12.80;91.78
32081;BME280;18593;51.426;7.030;2023-10-19T00:37:18;98401.47;;;12.81;91.89
32081;BME280;18593;51.426;7.030;2023-10-19T00:39:53;98400.13;;;12.83;92.13
32081;BME280;18593;51.426;7.030;2023-10-19T00:42:23;98407.06;;;12.84;91.79
32081;BME280;18593;51.426;7.030;2023-10-19T00:44:56;98397.94;;;12.85;92.32
32081;BME280;18593;51.426;7.030;2023-10-19T00:47:32;98395.78;;;12.87;92.28
32081;BME280;18593;51.426;7.030;2023-10-19T00:50:07;98392.84;;;12.89;91.94
32081;BME280;18593;51.426;7.030;2023-10-19T00:52:43;98392.06;;;12.88;92.09
32081;BME280;18593;51.426;7.030;2023-10-19T00:55:16;98395.53;;;12.89;91.62
32081;BME280;18593;51.426;7.030;2023-10-19T00:57:47;98390.19;;;12.89;91.35
32081;BME280;18593;51.426;7.030;2023-10-19T01:00:16;98384.53;;;12.91;92.01
32081;BME280;18593;51.426;7.030;2023-10-19T01:02:59;98385.34;;;12.91;91.81
32081;BME280;18593;51.426;7.030;2023-10-19T01:05:30;98399.22;;;12.93;92.05
32081;BME280;18593;51.426;7.030;2023-10-19T01:08:02;98390.94;;;12.95;92.68
32081;BME280;18593;51.426;7.030;2023-10-19T01:10:40;98386.38;;;12.95;93.57
32081;BME280;18593;51.426;7.030;2023-10-19T01:13:08;98381.84;;;12.96;93.59
32081;BME280;18593;51.426;7.030;2023-10-19T01:15:38;98393.03;;;12.98;93.47
32081;BME280;18593;51.426;7.030;2023-10-19T01:18:08;98389.31;;;12.99;94.17
32081;BME280;18593;51.426;7.030;2023-10-19T01:20:39;98390.91;;;13.00;93.79
32081;BME280;18593;51.426;7.030;2023-10-19T01:23:18;98391.72;;;13.00;94.51
32081;BME280;18593;51.426;7.030;2023-10-19T01:25:53;98390.63;;;13.01;94.46
32081;BME280;18593;51.426;7.030;2023-10-19T01:28:33;98390.06;;;13.04;95.89
32081;BME280;18593;51.426;7.030;2023-10-19T01:31:15;98382.84;;;13.05;95.41
32081;BME280;18593;51.426;7.030;2023-10-19T01:33:49;98388.72;;;13.07;95.74
32081;BME280;18593;51.426;7.030;2023-10-19T01:36:16;98378.78;;;13.07;95.75
32081;BME280;18593;51.426;7.030;2023-10-19T01:38:53;98376.94;;;13.08;95.11
32081;BME280;18593;51.426;7.030;2023-10-19T01:41:21;98376.38;;;13.11;95.60
32081;BME280;18593;51.426;7.030;2023-10-19T01:43:51;98378.50;;;13.14;95.76
32081;BME280;18593;51.426;7.030;2023-10-19T01:46:21;98377.91;;;13.17;95.93
32081;BME280;18593;51.426;7.030;2023-10-19T01:48:51;98379.53;;;13.18;96.39
32081;BME280;18593;51.426;7.030;2023-10-19T01:51:21;98384.09;;;13.23;97.00
32081;BME280;18593;51.426;7.030;2023-10-19T01:53:52;98382.22;;;13.23;96.93
32081;BME280;18593;51.426;7.030;2023-10-19T01:56:19;98379.25;;;13.25;97.01
32081;BME280;18593;51.426;7.030;2023-10-19T01:58:48;98373.59;;;13.26;96.89
32081;BME280;18593;51.426;7.030;2023-10-19T02:01:16;98371.47;;;13.28;97.46
32081;BME280;18593;51.426;7.030;2023-10-19T02:03:56;98372.75;;;13.31;97.50
32081;BME280;18593;51.426;7.030;2023-10-19T02:06:26;98368.22;;;13.31;97.48
32081;BME280;18593;51.426;7.030;2023-10-19T02:09:00;98372.50;;;13.32;97.23
32081;BME280;18593;51.426;7.030;2023-10-19T02:11:27;98367.66;;;13.34;97.77
32081;BME280;18593;51.426;7.030;2023-10-19T02:13:56;98370.84;;;13.36;98.08
32081;BME280;18593;51.426;7.030;2023-10-19T02:16:27;98366.28;;;13.37;98.69
32081;BME280;18593;51.426;7.030;2023-10-19T02:18:57;98363.84;;;13.40;99.24
32081;BME280;18593;51.426;7.030;2023-10-19T02:21:23;98360.09;;;13.42;99.38
32081;BME280;18593;51.426;7.030;2023-10-19T02:23:53;98364.09;;;13.44;98.94
32081;BME280;18593;51.426;7.030;2023-10-19T02:26:22;98360.31;;;13.45;98.62
32081;BME280;18593;51.426;7.030;2023-10-19T02:28:53;98357.94;;;13.44;98.41
32081;BME280;18593;51.426;7.030;2023-10-19T02:31:23;98359.53;;;13.45;98.10
32081;BME280;18593;51.426;7.030;2023-10-19T02:33:53;98355.75;;;13.46;97.67
32081;BME280;18593;51.426;7.030;2023-10-19T02:36:25;98357.34;;;13.47;98.38
32081;BME280;18593;51.426;7.030;2023-10-19T02:38:55;98355.50;;;13.47;98.14
32081;BME280;18593;51.426;7.030;2023-10-19T02:41:27;98355.50;;;13.47;98.05
32081;BME280;18593;51.426;7.030;2023-10-19T02:43:54;98353.88;;;13.46;97.78
32081;BME280;18593;51.426;7.030;2023-10-19T02:46:28;98351.50;;;13.45;97.23
32081;BME280;18593;51.426;7.030;2023-10-19T02:48:56;98347.72;;;13.46;97.25
32081;BME280;18593;51.426;7.030;2023-10-19T02:51:23;98345.06;;;13.46;97.35
32081;BME280;18593;51.426;7.030;2023-10-19T02:53:52;98352.00;;;13.47;97.11
32081;BME280;18593;51.426;7.030;2023-10-19T02:56:19;98350.94;;;13.48;97.51
32081;BME280;18593;51.426;7.030;2023-10-19T02:58:51;98341.81;;;13.49;97.16
32081;BME280;18593;51.426;7.030;2023-10-19T03:01:19;98351.44;;;13.50;96.55
32081;BME280;18593;51.426;7.030;2023-10-19T03:03:50;98345.28;;;13.49;96.66
32081;BME280;18593;51.426;7.030;2023-10-19T03:06:21;98340.72;;;13.50;96.38
32081;BME280;18593;51.426;7.030;2023-10-19T03:08:50;98343.94;;;13.52;96.25
32081;BME280;18593;51.426;7.030;2023-10-19T03:11:25;98338.06;;;13.50;96.68
32081;BME280;18593;51.426;7.030;2023-10-19T03:13:55;98349.31;;;13.52;96.25
32081;BME280;18593;51.426;7.030;2023-10-19T03:16:23;98349.31;;;13.52;95.94
32081;BME280;18593;51.426;7.030;2023-10-19T03:18:54;98347.13;;;13.54;96.02
32081;BME280;18593;51.426;7.030;2023-10-19T03:21:21;98343.38;;;13.55;96.05
32081;BME280;18593;51.426;7.030;2023-10-19T03:23:52;98342.81;;;13.58;95.93
32081;BME280;18593;51.426;7.030;2023-10-19T03:26:19;98344.41;;;13.59;96.56
32081;BME280;18593;51.426;7.030;2023-10-19T03:29:21;98334.78;;;13.58;96.56
32081;BME280;18593;51.426;7.030;2023-10-19T03:31:52;98336.38;;;13.59;96.49
32081;BME280;18593;51.426;7.030;2023-10-19T03:34:20;98337.97;;;13.60;96.82
32081;BME280;18593;51.426;7.030;2023-10-19T03:36:49;98339.53;;;13.61;96.97
32081;BME280;18593;51.426;7.030;2023-10-19T03:39:18;98330.44;;;13.62;97.19
32081;BME280;18593;51.426;7.030;2023-10-19T03:41:47;98326.16;;;13.61;97.18
32081;BME280;18593;51.426;7.030;2023-10-19T03:44:17;98324.81;;;13.63;97.75
32081;BME280;18593;51.426;7.030;2023-10-19T03:46:52;98313.78;;;13.65;97.77
32081;BME280;18593;51.426;7.030;2023-10-19T03:49:24;98313.00;;;13.64;97.43
32081;BME280;18593;51.426;7.030;2023-10-19T03:51:57;98317.00;;;13.67;97.10
32081;BME280;18593;51.426;7.030;2023-10-19T03:54:29;98325.03;;;13.67;97.46
32081;BME280;18593;51.426;7.030;2023-10-19T03:56:59;98317.28;;;13.65;97.45
32081;BME280;18593;51.426;7.030;2023-10-19T03:59:32;98319.69;;;13.67;97.39
32081;BME280;18593;51.426;7.030;2023-10-19T04:02:02;98315.91;;;13.68;97.12
32081;BME280;18593;51.426;7.030;2023-10-19T04:04:36;98314.81;;;13.69;97.34
32081;BME280;18593;51.426;7.030;2023-10-19T04:07:05;98309.75;;;13.68;97.34
32081;BME280;18593;51.426;7.030;2023-10-19T04:09:40;98308.69;;;13.69;97.33
32081;BME280;18593;51.426;7.030;2023-10-19T04:12:23;98317.50;;;13.69;97.07
32081;BME280;18593;51.426;7.030;2023-10-19T04:14:51;98312.16;;;13.69;97.33
32081;BME280;18593;51.426;7.030;2023-10-19T04:17:22;98302.53;;;13.68;97.00
32081;BME280;18593;51.426;7.030;2023-10-19T04:19:50;98309.47;;;13.69;96.97
32081;BME280;18593;51.426;7.030;2023-10-19T04:22:19;98306.78;;;13.69;97.23
32081;BME280;18593;51.426;7.030;2023-10-19T04:24:50;98293.41;;;13.69;96.93
32081;BME280;18593;51.426;7.030;2023-10-19T04:27:20;98294.50;;;13.68;97.00
32081;BME280;18593;51.426;7.030;2023-10-19T04:29:49;98280.81;;;13.70;96.91
32081;BME280;18593;51.426;7.030;2023-10-19T04:32:16;98282.38;;;13.71;96.79
32081;BME280;18593;51.426;7.030;2023-10-19T04:34:52;98296.56;;;13.71;96.12
32081;BME280;18593;51.426;7.030;2023-10-19T04:37:20;98296.56;;;13.71;96.13
32081;BME280;18593;51.426;7.030;2023-10-19T04:39:50;98290.16;;;13.72;96.06
32081;BME280;18593;51.426;7.030;2023-10-19T04:42:18;98297.41;;;13.72;95.70
32081;BME280;18593;51.426;7.030;2023-10-19T04:44:48;98293.63;;;13.73;95.72
32081;BME280;18593;51.426;7.030;2023-10-19T04:47:16;98294.44;;;13.73;95.72
32081;BME280;18593;51.426;7.030;2023-10-19T04:49:44;98290.66;;;13.74;95.88
32081;BME280;18593;51.426;7.030;2023-10-19T04:52:13;98289.88;;;13.74;95.61
32081;BME280;18593;51.426;7.030;2023-10-19T04:54:41;98291.75;;;13.73;95.14
32081;BME280;18593;51.426;7.030;2023-10-19T04:57:09;98292.25;;;13.75;95.03
32081;BME280;18593;51.426;7.030;2023-10-19T04:59:37;98296.03;;;13.74;95.33
32081;BME280;18593;51.426;7.030;2023-10-19T05:02:04;98293.34;;;13.74;95.64
32081;BME280;18593;51.426;7.030;2023-10-19T05:04:32;98289.88;;;13.74;95.57
32081;BME280;18593;51.426;7.030;2023-10-19T05:07:02;98279.66;;;13.76;95.59
32081;BME280;18593;51.426;7.030;2023-10-19T05:09:32;98290.09;;;13.77;95.27
32081;BME280;18593;51.426;7.030;2023-10-19T05:12:00;98287.91;;;13.79;94.62
32081;BME280;18593;51.426;7.030;2023-10-19T05:14:27;98297.84;;;13.79;94.74
32081;BME280;18593;51.426;7.030;2023-10-19T05:16:55;98295.72;;;13.76;94.53
32081;BME280;18593;51.426;7.030;2023-10-19T05:19:22;98302.97;;;13.75;94.04
32081;BME280;18593;51.426;7.030;2023-10-19T05:21:50;98309.41;;;13.74;94.29
32081;BME280;18593;51.426;7.030;2023-10-19T05:24:18;98304.84;;;13.75;93.93
32081;BME280;18593;51.426;7.030;2023-10-19T05:26:47;98298.69;;;13.74;93.77
32081;BME280;18593;51.426;7.030;2023-10-19T05:29:15;98302.16;;;13.75;94.14
32081;BME280;18593;51.426;7.030;2023-10-19T05:31:43;98296.31;;;13.73;93.98
32081;BME280;18593;51.426;7.030;2023-10-19T05:34:10;98297.91;;;13.74;93.91
32081;BME280;18593;51.426;7.030;2023-10-19T05:36:38;98298.41;;;13.76;94.30
32081;BME280;18593;51.426;7.030;2023-10-19T05:39:10;98309.94;;;13.76;94.09
32081;BME280;18593;51.426;7.030;2023-10-19T05:41:39;98305.66;;;13.75;93.01
32081;BME280;18593;51.426;7.030;2023-10-19T05:44:08;98302.47;;;13.73;92.95
32081;BME280;18593;51.426;7.030;2023-10-19T05:46:36;98299.78;;;13.73;92.50
32081;BME280;18593;51.426;7.030;2023-10-19T05:49:08;98303.56;;;13.72;91.30
32081;BME280;18593;51.426;7.030;2023-10-19T05:51:35;98300.88;;;13.72;91.15
32081;BME280;18593;51.426;7.030;2023-10-19T05:54:04;98311.59;;;13.72;91.05
32081;BME280;18593;51.426;7.030;2023-10-19T05:56:34;98310.56;;;13.68;90.21
32081;BME280;18593;51.426;7.030;2023-10-19T05:59:02;98306.28;;;13.67;90.02
32081;BME280;18593;51.426;7.030;2023-10-19T06:01:32;98317.00;;;13.67;90.37
32081;BME280;18593;51.426;7.030;2023-10-19T06:04:01;98317.00;;;13.67;90.99
32081;BME280;18593;51.426;7.030;2023-10-19T06:06:28;98319.69;;;13.67;91.06
32081;BME280;18593;51.426;7.030;2023-10-19T06:08:56;98324.25;;;13.67;91.50
32081;BME280;18593;51.426;7.030;2023-10-19T06:11:24;98315.13;;;13.68;91.54
32081;BME280;18593;51.426;7.030;2023-10-19T06:13:58;98331.19;;;13.68;91.60
32081;BME280;18593;51.426;7.030;2023-10-19T06:16:26;98333.06;;;13.67;91.24
32081;BME280;18593;51.426;7.030;2023-10-19T06:18:55;98327.72;;;13.67;91.87
32081;BME280;18593;51.426;7.030;2023-10-19T06:21:23;98332.53;;;13.65;90.88
32081;BME280;18593;51.426;7.030;2023-10-19T06:23:51;98335.22;;;13.65;90.71
32081;BME280;18593;51.426;7.030;2023-10-19T06:26:20;98340.03;;;13.68;91.68
32081;BME280;18593;51.426;7.030;2023-10-19T06:28:48;98337.06;;;13.70;92.39
32081;BME280;18593;51.426;7.030;2023-10-19T06:31:17;98340.81;;;13.69;92.27
32081;BME280;18593;51.426;7.030;2023-10-19T06:33:45;98337.84;;;13.70;92.93
32081;BME280;18593;51.426;7.030;2023-10-19T06:36:14;98337.59;;;13.72;93.47
32081;BME280;18593;51.426;7.030;2023-10-19T06:38:41;98345.63;;;13.72;93.42
32081;BME280;18593;51.426;7.030;2023-10-19T06:41:11;98357.13;;;13.72;93.11
32081;BME280;18593;51.426;7.030;2023-10-19T06:43:39;98342.66;;;13.73;93.31
32081;BME280;18593;51.426;7.030;2023-10-19T06:46:08;98348.00;;;13.73;93.35
32081;BME280;18593;51.426;7.030;2023-10-19T06:48:37;98348.81;;;13.74;93.33
32081;BME280;18593;51.426;7.030;2023-10-19T06:51:06;98358.72;;;13.73;93.23
32081;BME280;18593;51.426;7.030;2023-10-19T06:53:37;98357.06;;;13.77;93.90
32081;BME280;18593;51.426;7.030;2023-10-19T06:56:05;98358.97;;;13.77;94.01
32081;BME280;18593;51.426;7.030;2023-10-19T06:58:32;98363.72;;;13.80;94.77
32081;BME280;18593;51.426;7.030;2023-10-19T07:01:07;98365.31;;;13.81;94.73
32081;BME280;18593;51.426;7.030;2023-10-19T07:03:35;98361.84;;;13.80;94.51
32081;BME280;18593;51.426;7.030;2023-10-19T07:06:03;98365.31;;;13.81;94.72
32081;BME280;18593;51.426;7.030;2023-10-19T07:08:33;98365.84;;;13.83;95.15
32081;BME280;18593;51.426;7.030;2023-10-19T07:11:03;98376.28;;;13.84;95.31
32081;BME280;18593;51.426;7.030;2023-10-19T07:13:31;98361.78;;;13.85;95.52
32081;BME280;18593;51.426;7.030;2023-10-19T07:16:00;98365.00;;;13.87;95.55
32081;BME280;18593;51.426;7.030;2023-10-19T07:18:30;98360.94;;;13.90;96.02
32081;BME280;18593;51.426;7.030;2023-10-19T07:20:58;98360.69;;;13.91;96.09
32081;BME280;18593;51.426;7.030;2023-10-19T07:23:29;98362.78;;;13.95;96.67
32081;BME280;18593;51.426;7.030;2023-10-19T07:25:56;98367.03;;;13.96;96.37
32081;BME280;18593;51.426;7.030;2023-10-19T07:28:28;98360.31;;;13.98;96.53
32081;BME280;18593;51.426;7.030;2023-10-19T07:30:59;98367.28;;;13.99;96.65
32081;BME280;18593;51.426;7.030;2023-10-19T07:33:30;98367.28;;;13.99;96.47
32081;BME280;18593;51.426;7.030;2023-10-19T07:35:57;98375.84;;;14.01;96.73
32081;BME280;18593;51.426;7.030;2023-10-19T07:38:27;98373.38;;;14.05;96.66
32081;BME280;18593;51.426;7.030;2023-10-19T07:40:56;98376.84;;;14.05;96.78
32081;BME280;18593;51.426;7.030;2023-10-19T07:43:24;98373.38;;;14.05;96.73
32081;BME280;18593;51.426;7.030;2023-10-19T07:45:56;98378.47;;;14.06;96.86
32081;BME280;18593;51.426;7.030;2023-10-19T07:48:24;98363.97;;;14.07;96.79
32081;BME280;18593;51.426;7.030;2023-10-19T07:50:52;98371.72;;;14.09;97.02
32081;BME280;18593;51.426;7.030;2023-10-19T07:53:20;98373.06;;;14.11;97.44
32081;BME280;18593;51.426;7.030;2023-10-19T07:55:50;98376.22;;;14.13;97.42
32081;BME280;18593;51.426;7.030;2023-10-19T07:58:18;98372.19;;;14.16;97.67
32081;BME280;18593;51.426;7.030;2023-10-19T08:00:46;98370.31;;;14.16;97.56
32081;BME280;18593;51.426;7.030;2023-10-19T08:03:15;98368.94;;;14.19;97.46
32081;BME280;18593;51.426;7.030;2023-10-19T08:05:43;98371.34;;;14.21;97.32
32081;BME280;18593;51.426;7.030;2023-10-19T08:08:10;98369.97;;;14.23;97.54
32081;BME280;18593;51.426;7.030;2023-10-19T08:10:38;98361.91;;;14.23;98.04
32081;BME280;18593;51.426;7.030;2023-10-19T08:13:06;98364.03;;;14.26;98.38
32081;BME280;18593;51.426;7.030;2023-10-19T08:15:38;98369.88;;;14.28;98.28
32081;BME280;18593;51.426;7.030;2023-10-19T08:18:06;98364.53;;;14.28;98.18
32081;BME280;18593;51.426;7.030;2023-10-19T08:20:35;98366.34;;;14.33;98.29
32081;BME280;18593;51.426;7.030;2023-10-19T08:23:03;98356.41;;;14.33;98.34
32081;BME280;18593;51.426;7.030;2023-10-19T08:25:31;98358.84;;;14.35;98.40
32081;BME280;18593;51.426;7.030;2023-10-19T08:27:59;98360.63;;;14.39;98.84
32081;BME280;18593;51.426;7.030;2023-10-19T08:30:27;98369.69;;;14.43;98.67
32081;BME280;18593;51.426;7.030;2023-10-19T08:32:55;98363.75;;;14.47;98.62
32081;BME280;18593;51.426;7.030;2023-10-19T08:35:24;98356.78;;;14.51;98.45
32081;BME280;18593;51.426;7.030;2023-10-19T08:37:53;98352.69;;;14.53;98.84
32081;BME280;18593;51.426;7.030;2023-10-19T08:40:21;98352.94;;;14.57;98.43
32081;BME280;18593;51.426;7.030;2023-10-19T08:42:49;98348.59;;;14.61;99.09
32081;BME280;18593;51.426;7.030;2023-10-19T08:45:18;98356.84;;;14.64;99.75
32081;BME280;18593;51.426;7.030;2023-10-19T08:47:54;98343.63;;;14.68;100.00
32081;BME280;18593;51.426;7.030;2023-10-19T08:50:24;98344.97;;;14.71;99.86
32081;BME280;18593;51.426;7.030;2023-10-19T08:52:57;98345.19;;;14.74;99.17
32081;BME280;18593;51.426;7.030;2023-10-19T08:55:25;98345.38;;;14.78;99.18
32081;BME280;18593;51.426;7.030;2023-10-19T08:57:53;98341.34;;;14.80;98.74
32081;BME280;18593;51.426;7.030;2023-10-19T09:00:21;98345.03;;;14.84;98.49
32081;BME280;18593;51.426;7.030;2023-10-19T09:02:52;98343.38;;;14.88;98.61
32081;BME280;18593;51.426;7.030;2023-10-19T09:05:20;98346.53;;;14.90;98.38
32081;BME280;18593;51.426;7.030;2023-10-19T09:07:49;98339.78;;;14.93;98.41
32081;BME280;18593;51.426;7.030;2023-10-19T09:10:22;98335.72;;;14.96;98.40
32081;BME280;18593;51.426;7.030;2023-10-19T09:13:01;98332.75;;;14.97;97.69
32081;BME280;18593;51.426;7.030;2023-10-19T09:15:30;98338.63;;;14.99;97.47
32081;BME280;18593;51.426;7.030;2023-10-19T09:17:59;98334.56;;;15.02;97.59
32081;BME280;18593;51.426;7.030;2023-10-19T09:20:39;98336.88;;;15.08;97.50
32081;BME280;18593;51.426;7.030;2023-10-19T09:23:08;98333.03;;;15.14;98.48
32081;BME280;18593;51.426;7.030;2023-10-19T09:25:38;98335.63;;;15.19;98.66
32081;BME280;18593;51.426;7.030;2023-10-19T09:28:06;98332.06;;;15.24;98.48
32081;BME280;18593;51.426;7.030;2023-10-19T09:30:37;98333.84;;;15.29;97.71
32081;BME280;18593;51.426;7.030;2023-10-19T09:33:05;98332.47;;;15.31;96.93
32081;BME280;18593;51.426;7.030;2023-10-19T09:35:35;98330.28;;;15.33;96.38
32081;BME280;18593;51.426;7.030;2023-10-19T09:38:04;98320.03;;;15.35;95.54
32081;BME280;18593;51.426;7.030;2023-10-19T09:40:32;98324.81;;;15.38;95.28
32081;BME280;18593;51.426;7.030;2023-10-19T09:43:05;98325.22;;;15.45;95.61
32081;BME280;18593;51.426;7.030;2023-10-19T09:45:38;98321.97;;;15.49;95.00
32081;BME280;18593;51.426;7.030;2023-10-19T09:48:09;98324.03;;;15.52;94.98
32081;BME280;18593;51.426;7.030;2023-10-19T09:50:44;98321.88;;;15.54;94.04
32081;BME280;18593;51.426;7.030;2023-10-19T09:53:14;98322.34;;;15.56;93.85
32081;BME280;18593;51.426;7.030;2023-10-19T09:55:42;98313.22;;;15.57;93.21
32081;BME280;18593;51.426;7.030;2023-10-19T09:58:20;98314.19;;;15.61;93.59
32081;BME280;18593;51.426;7.030;2023-10-19T10:00:50;98313.66;;;15.64;91.82
32081;BME280;18593;51.426;7.030;2023-10-19T10:03:48;98319.81;;;15.64;92.10
32081;BME280;18593;51.426;7.030;2023-10-19T10:06:27;98326.28;;;15.63;91.79
32081;BME280;18593;51.426;7.030;2023-10-19T10:08:55;98323.88;;;15.62;91.69
32081;BME280;18593;51.426;7.030;2023-10-19T10:11:25;98309.84;;;15.65;91.31
32081;BME280;18593;51.426;7.030;2023-10-19T10:13:56;98315.66;;;15.72;91.81
32081;BME280;18593;51.426;7.030;2023-10-19T10:18:58;98305.59;;;15.91;91.73
32081;BME280;18593;51.426;7.030;2023-10-19T10:21:28;98290.97;;;15.98;91.33
32081;BME280;18593;51.426;7.030;2023-10-19T10:23:57;98305.69;;;16.00;89.22
32081;BME280;18593;51.426;7.030;2023-10-19T10:26:28;98299.91;;;16.07;89.53
32081;BME280;18593;51.426;7.030;2023-10-19T10:29:14;98306.88;;;16.08;88.78
32081;BME280;18593;51.426;7.030;2023-10-19T10:31:47;98307.09;;;16.11;88.29
32081;BME280;18593;51.426;7.030;2023-10-19T10:34:42;98298.22;;;16.11;86.09
32081;BME280;18593;51.426;7.030;2023-10-19T10:37:11;98304.47;;;16.20;85.11
32081;BME280;18593;51.426;7.030;2023-10-19T10:39:40;98291.53;;;16.22;85.18
32081;BME280;18593;51.426;7.030;2023-10-19T10:42:11;98291.91;;;16.29;84.60
32081;BME280;18593;51.426;7.030;2023-10-19T10:44:42;98287.03;;;16.31;83.45
32081;BME280;18593;51.426;7.030;2023-10-19T10:47:12;98285.31;;;16.35;84.48
32081;BME280;18593;51.426;7.030;2023-10-19T10:49:50;98281.66;;;16.31;83.80
32081;BME280;18593;51.426;7.030;2023-10-19T10:52:27;98286.13;;;16.36;83.55
32081;BME280;18593;51.426;7.030;2023-10-19T10:54:55;98285.31;;;16.35;83.67
32081;BME280;18593;51.426;7.030;2023-10-19T10:57:23;98281.22;;;16.38;82.56
32081;BME280;18593;51.426;7.030;2023-10-19T11:00:08;98279.31;;;16.38;82.02
32081;BME280;18593;51.426;7.030;2023-10-19T11:02:42;98279.44;;;16.33;80.64
32081;BME280;18593;51.426;7.030;2023-10-19T11:05:13;98282.25;;;16.28;80.68
32081;BME280;18593;51.426;7.030;2023-10-19T11:07:41;98279.53;;;16.28;80.99
32081;BME280;18593;51.426;7.030;2023-10-19T11:10:29;98277.97;;;16.27;81.38
32081;BME280;18593;51.426;7.030;2023-10-19T11:13:01;98286.13;;;16.36;82.93
32081;BME280;18593;51.426;7.030;2023-10-19T11:15:30;98279.63;;;16.37;83.19
32081;BME280;18593;51.426;7.030;2023-10-19T11:17:59;98284.41;;;16.40;83.40
32081;BME280;18593;51.426;7.030;2023-10-19T11:20:27;98283.47;;;16.44;83.95
32081;BME280;18593;51.426;7.030;2023-10-19T11:22:56;98281.63;;;16.45;82.99
32081;BME280;18593;51.426;7.030;2023-10-19T11:25:27;98274.63;;;16.44;82.19
32081;BME280;18593;51.426;7.030;2023-10-19T11:27:55;98269.25;;;16.44;81.61
32081;BME280;18593;51.426;7.030;2023-10-19T11:30:25;98265.63;;;16.48;82.47
32081;BME280;18593;51.426;7.030;2023-10-19T11:32:55;98261.06;;;16.49;81.51
32081;BME280;18593;51.426;7.030;2023-10-19T11:35:28;98259.66;;;16.52;82.34
32081;BME280;18593;51.426;7.030;2023-10-19T11:37:58;98252.19;;;16.48;82.02
32081;BME280;18593;51.426;7.030;2023-10-19T11:40:27;98235.88;;;16.45;80.94
32081;BME280;18593;51.426;7.030;2023-10-19T11:42:56;98240.44;;;16.44;81.56
32081;BME280;18593;51.426;7.030;2023-10-19T11:45:23;98236.78;;;16.40;81.05
32081;BME280;18593;51.426;7.030;2023-10-19T11:47:50;98238.19;;;16.38;80.28
32081;BME280;18593;51.426;7.030;2023-10-19T11:50:20;98225.03;;;16.36;80.67
32081;BME280;18593;51.426;7.030;2023-10-19T11:52:48;98229.63;;;16.36;80.93
32081;BME280;18593;51.426;7.030;2023-10-19T11:55:16;98221.56;;;16.36;81.76
32081;BME280;18593;51.426;7.030;2023-10-19T11:57:43;98215.19;;;16.32;81.96
32081;BME280;18593;51.426;7.030;2023-10-19T12:00:12;98219.25;;;16.29;82.67
32081;BME280;18593;51.426;7.030;2023-10-19T12:02:48;98222.28;;;16.28;83.07
32081;BME280;18593;51.426;7.030;2023-10-19T12:05:15;98219.78;;;16.31;83.10
32081;BME280;18593;51.426;7.030;2023-10-19T12:07:44;98215.38;;;16.35;82.42
32081;BME280;18593;51.426;7.030;2023-10-19T12:10:12;98218.75;;;16.41;82.76
32081;BME280;18593;51.426;7.030;2023-10-19T12:12:39;98215.75;;;16.42;83.27
32081;BME280;18593;51.426;7.030;2023-10-19T12:15:09;98215.13;;;16.45;83.58
32081;BME280;18593;51.426;7.030;2023-10-19T12:17:38;98221.00;;;16.47;83.43
32081;BME280;18593;51.426;7.030;2023-10-19T12:20:07;98223.38;;;16.49;83.46
32081;BME280;18593;51.426;7.030;2023-10-19T12:22:34;98219.91;;;16.48;83.50
32081;BME280;18593;51.426;7.030;2023-10-19T12:25:07;98216.59;;;16.52;83.24
32081;BME280;18593;51.426;7.030;2023-10-19T12:27:37;98212.50;;;16.54;83.17
32081;BME280;18593;51.426;7.030;2023-10-19T12:30:07;98213.78;;;16.57;82.31
32081;BME280;18593;51.426;7.030;2023-10-19T12:32:43;98219.66;;;16.59;82.08
32081;BME280;18593;51.426;7.030;2023-10-19T12:35:10;98219.06;;;16.62;82.99
32081;BME280;18593;51.426;7.030;2023-10-19T12:37:38;98231.91;;;16.65;83.30
32081;BME280;18593;51.426;7.030;2023-10-19T12:40:15;98231.72;;;16.61;82.56
32081;BME280;18593;51.426;7.030;2023-10-19T12:42:55;98231.53;;;16.58;82.88
32081;BME280;18593;51.426;7.030;2023-10-19T12:45:25;98234.03;;;16.54;82.79
32081;BME280;18593;51.426;7.030;2023-10-19T12:47:52;98221.88;;;16.57;82.80
32081;BME280;18593;51.426;7.030;2023-10-19T12:50:21;98213.47;;;16.58;82.62
32081;BME280;18593;51.426;7.030;2023-10-19T12:52:49;98207.03;;;16.59;82.58
32081;BME280;18593;51.426;7.030;2023-10-19T12:55:19;98212.09;;;16.61;82.49
32081;BME280;18593;51.426;7.030;2023-10-19T12:57:46;98205.91;;;16.60;82.19
32081;BME280;18593;51.426;7.030;2023-10-19T13:00:15;98206.69;;;16.61;82.30
32081;BME280;18593;51.426;7.030;2023-10-19T13:02:52;98202.91;;;16.62;81.83
32081;BME280;18593;51.426;7.030;2023-10-19T13:05:27;98204.47;;;16.63;82.48
32081;BME280;18593;51.426;7.030;2023-10-19T13:07:55;98202.13;;;16.61;83.16
32081;BME280;18593;51.426;7.030;2023-10-19T13:10:30;98206.19;;;16.59;83.87
32081;BME280;18593;51.426;7.030;2023-10-19T13:13:00;98200.34;;;16.57;83.38
32081;BME280;18593;51.426;7.030;2023-10-19T13:15:30;98195.75;;;16.57;83.30
32081;BME280;18593;51.426;7.030;2023-10-19T13:17:58;98201.44;;;16.56;82.99
32081;BME280;18593;51.426;7.030;2023-10-19T13:20:26;98197.16;;;16.55;82.84